sensor_id;sensor_type;location;lat;lon;timestamp;P1;P2;P0
36453;PMS5003;22478;51.740;-1.314;2023-11-22T00:01:10;11;8;
36453;PMS5003;22478;51.740;-1.314;2023-11-22T00:03:38;11;9;
36453;PMS5003;22478;51.740;-1.314;2023-11-22T00:06:06;9;9;
36453;PMS5003;22478;51.740;-1.314;2023-11-22T00:08:33;6;6;
36453;PMS5003;22478;51.740;-1.314;2023-11-22T00:11:00;12;9;
36453;PMS5003;22478;51.740;-1.314;2023-11-22T00:13:27;9;8;
36453;PMS5003;22478;51.740;-1.314;2023-11-22T00:15:54;11;10;
36453;PMS5003;22478;51.740;-1.314;2023-11-22T00:18:21;9;9;
36453;PMS5003;22478;51.740;-1.314;2023-11-22T00:20:48;8;7;
36453;PMS5003;22478;51.740;-1.314;2023-11-22T00:23:15;12;10;
36453;PMS5003;22478;51.740;-1.314;2023-11-22T00:25:42;12;9;
36453;PMS5003;22478;51.740;-1.314;2023-11-22T00:28:09;10;9;
36453;PMS5003;22478;51.740;-1.314;2023-11-22T00:30:37;12;9;
36453;PMS5003;22478;51.740;-1.314;2023-11-22T00:33:04;13;9;
36453;PMS5003;22478;51.740;-1.314;2023-11-22T00:35:32;15;10;
36453;PMS5003;22478;51.740;-1.314;2023-11-22T00:37:59;8;8;
36453;PMS5003;22478;51.740;-1.314;2023-11-22T00:40:26;10;9;
36453;PMS5003;22478;51.740;-1.314;2023-11-22T00:42:53;10;9;
36453;PMS5003;22478;51.740;-1.314;2023-11-22T00:45:20;9;8;
36453;PMS5003;22478;51.740;-1.314;2023-11-22T00:47:48;12;9;
36453;PMS5003;22478;51.740;-1.314;2023-11-22T00:50:15;12;10;
36453;PMS5003;22478;51.740;-1.314;2023-11-22T00:52:42;10;9;
36453;PMS5003;22478;51.740;-1.314;2023-11-22T00:55:10;9;9;
36453;PMS5003;22478;51.740;-1.314;2023-11-22T00:57:37;9;9;
36453;PMS5003;22478;51.740;-1.314;2023-11-22T01:00:06;11;11;
36453;PMS5003;22478;51.740;-1.314;2023-11-22T01:02:33;9;6;
36453;PMS5003;22478;51.740;-1.314;2023-11-22T01:05:00;11;8;
36453;PMS5003;22478;51.740;-1.314;2023-11-22T01:07:27;7;7;
36453;PMS5003;22478;51.740;-1.314;2023-11-22T01:09:54;13;12;
36453;PMS5003;22478;51.740;-1.314;2023-11-22T01:12:21;8;8;
36453;PMS5003;22478;51.740;-1.314;2023-11-22T01:14:48;12;9;
36453;PMS5003;22478;51.740;-1.314;2023-11-22T01:17:15;16;11;
36453;PMS5003;22478;51.740;-1.314;2023-11-22T01:19:42;10;10;
36453;PMS5003;22478;51.740;-1.314;2023-11-22T01:22:09;12;12;
36453;PMS5003;22478;51.740;-1.314;2023-11-22T01:24:36;12;10;
36453;PMS5003;22478;51.740;-1.314;2023-11-22T01:27:03;9;8;
36453;PMS5003;22478;51.740;-1.314;2023-11-22T01:29:31;11;10;
36453;PMS5003;22478;51.740;-1.314;2023-11-22T01:31:58;8;8;
36453;PMS5003;22478;51.740;-1.314;2023-11-22T01:34:26;9;7;
36453;PMS5003;22478;51.740;-1.314;2023-11-22T01:36:53;10;10;
36453;PMS5003;22478;51.740;-1.314;2023-11-22T01:39:20;12;9;
36453;PMS5003;22478;51.740;-1.314;2023-11-22T01:41:47;13;13;
36453;PMS5003;22478;51.740;-1.314;2023-11-22T01:44:14;18;13;
36453;PMS5003;22478;51.740;-1.314;2023-11-22T01:46:41;9;7;
36453;PMS5003;22478;51.740;-1.314;2023-11-22T01:49:09;13;10;
36453;PMS5003;22478;51.740;-1.314;2023-11-22T01:51:37;13;11;
36453;PMS5003;22478;51.740;-1.314;2023-11-22T01:54:06;12;8;
36453;PMS5003;22478;51.740;-1.314;2023-11-22T01:56:35;10;9;
36453;PMS5003;22478;51.740;-1.314;2023-11-22T01:59:03;14;14;
36453;PMS5003;22478;51.740;-1.314;2023-11-22T02:01:31;14;11;
36453;PMS5003;22478;51.740;-1.314;2023-11-22T02:03:58;10;8;
36453;PMS5003;22478;51.740;-1.314;2023-11-22T02:06:26;10;10;
36453;PMS5003;22478;51.740;-1.314;2023-11-22T02:08:53;13;10;
36453;PMS5003;22478;51.740;-1.314;2023-11-22T02:11:21;11;11;
36453;PMS5003;22478;51.740;-1.314;2023-11-22T02:13:47;10;10;
36453;PMS5003;22478;51.740;-1.314;2023-11-22T02:16:15;16;13;
36453;PMS5003;22478;51.740;-1.314;2023-11-22T02:18:43;16;15;
36453;PMS5003;22478;51.740;-1.314;2023-11-22T02:21:10;14;14;
36453;PMS5003;22478;51.740;-1.314;2023-11-22T02:23:38;11;9;
36453;PMS5003;22478;51.740;-1.314;2023-11-22T02:26:05;12;12;
36453;PMS5003;22478;51.740;-1.314;2023-11-22T02:28:33;12;12;
36453;PMS5003;22478;51.740;-1.314;2023-11-22T02:31:00;13;12;
36453;PMS5003;22478;51.740;-1.314;2023-11-22T02:33:27;11;10;
36453;PMS5003;22478;51.740;-1.314;2023-11-22T02:35:54;10;10;
36453;PMS5003;22478;51.740;-1.314;2023-11-22T02:38:21;11;7;
36453;PMS5003;22478;51.740;-1.314;2023-11-22T02:40:48;12;10;
36453;PMS5003;22478;51.740;-1.314;2023-11-22T02:43:15;11;11;
36453;PMS5003;22478;51.740;-1.314;2023-11-22T02:45:42;13;11;
36453;PMS5003;22478;51.740;-1.314;2023-11-22T02:48:09;11;11;
36453;PMS5003;22478;51.740;-1.314;2023-11-22T02:50:36;11;11;
36453;PMS5003;22478;51.740;-1.314;2023-11-22T02:53:03;11;11;
36453;PMS5003;22478;51.740;-1.314;2023-11-22T02:55:30;13;13;
36453;PMS5003;22478;51.740;-1.314;2023-11-22T02:57:57;10;10;
36453;PMS5003;22478;51.740;-1.314;2023-11-22T03:00:24;14;10;
36453;PMS5003;22478;51.740;-1.314;2023-11-22T03:02:51;12;11;
36453;PMS5003;22478;51.740;-1.314;2023-11-22T03:05:18;16;13;
36453;PMS5003;22478;51.740;-1.314;2023-11-22T03:07:46;15;12;
36453;PMS5003;22478;51.740;-1.314;2023-11-22T03:10:13;13;13;
36453;PMS5003;22478;51.740;-1.314;2023-11-22T03:12:41;13;11;
36453;PMS5003;22478;51.740;-1.314;2023-11-22T03:15:08;16;15;
36453;PMS5003;22478;51.740;-1.314;2023-11-22T03:17:35;12;11;
36453;PMS5003;22478;51.740;-1.314;2023-11-22T03:20:03;15;13;
36453;PMS5003;22478;51.740;-1.314;2023-11-22T03:22:31;13;10;
36453;PMS5003;22478;51.740;-1.314;2023-11-22T03:24:58;14;13;
36453;PMS5003;22478;51.740;-1.314;2023-11-22T03:27:25;13;11;
36453;PMS5003;22478;51.740;-1.314;2023-11-22T03:29:52;13;12;
36453;PMS5003;22478;51.740;-1.314;2023-11-22T03:32:20;16;14;
36453;PMS5003;22478;51.740;-1.314;2023-11-22T03:34:47;13;12;
36453;PMS5003;22478;51.740;-1.314;2023-11-22T03:37:15;19;15;
36453;PMS5003;22478;51.740;-1.314;2023-11-22T03:39:42;17;17;
36453;PMS5003;22478;51.740;-1.314;2023-11-22T03:42:09;16;11;
36453;PMS5003;22478;51.740;-1.314;2023-11-22T03:44:36;14;13;
36453;PMS5003;22478;51.740;-1.314;2023-11-22T03:47:03;17;14;
36453;PMS5003;22478;51.740;-1.314;2023-11-22T03:49:31;13;13;
36453;PMS5003;22478;51.740;-1.314;2023-11-22T03:51:58;17;14;
36453;PMS5003;22478;51.740;-1.314;2023-11-22T03:54:25;17;12;
36453;PMS5003;22478;51.740;-1.314;2023-11-22T03:56:52;15;15;
36453;PMS5003;22478;51.740;-1.314;2023-11-22T03:59:19;22;16;
36453;PMS5003;22478;51.740;-1.314;2023-11-22T04:01:46;14;14;
36453;PMS5003;22478;51.740;-1.314;2023-11-22T04:04:13;11;11;
36453;PMS5003;22478;51.740;-1.314;2023-11-22T04:06:40;16;15;
36453;PMS5003;22478;51.740;-1.314;2023-11-22T04:09:07;15;11;
36453;PMS5003;22478;51.740;-1.314;2023-11-22T04:11:34;13;13;
36453;PMS5003;22478;51.740;-1.314;2023-11-22T04:14:01;18;13;
36453;PMS5003;22478;51.740;-1.314;2023-11-22T04:16:28;16;15;
36453;PMS5003;22478;51.740;-1.314;2023-11-22T04:18:56;18;15;
36453;PMS5003;22478;51.740;-1.314;2023-11-22T04:21:23;15;15;
36453;PMS5003;22478;51.740;-1.314;2023-11-22T04:23:50;18;18;
36453;PMS5003;22478;51.740;-1.314;2023-11-22T04:26:17;15;14;
36453;PMS5003;22478;51.740;-1.314;2023-11-22T04:28:44;15;15;
36453;PMS5003;22478;51.740;-1.314;2023-11-22T04:31:11;16;14;
36453;PMS5003;22478;51.740;-1.314;2023-11-22T04:33:38;16;15;
36453;PMS5003;22478;51.740;-1.314;2023-11-22T04:36:05;13;12;
36453;PMS5003;22478;51.740;-1.314;2023-11-22T04:38:33;20;17;
36453;PMS5003;22478;51.740;-1.314;2023-11-22T04:41:00;19;15;
36453;PMS5003;22478;51.740;-1.314;2023-11-22T04:43:28;18;15;
36453;PMS5003;22478;51.740;-1.314;2023-11-22T04:45:55;20;18;
36453;PMS5003;22478;51.740;-1.314;2023-11-22T04:48:22;23;18;
36453;PMS5003;22478;51.740;-1.314;2023-11-22T04:50:49;18;17;
36453;PMS5003;22478;51.740;-1.314;2023-11-22T04:53:16;20;18;
36453;PMS5003;22478;51.740;-1.314;2023-11-22T04:55:45;21;18;
36453;PMS5003;22478;51.740;-1.314;2023-11-22T04:58:12;17;14;
36453;PMS5003;22478;51.740;-1.314;2023-11-22T05:00:39;18;16;
36453;PMS5003;22478;51.740;-1.314;2023-11-22T05:03:06;16;14;
36453;PMS5003;22478;51.740;-1.314;2023-11-22T05:05:33;20;19;
36453;PMS5003;22478;51.740;-1.314;2023-11-22T05:08:00;18;14;
36453;PMS5003;22478;51.740;-1.314;2023-11-22T05:10:27;19;15;
36453;PMS5003;22478;51.740;-1.314;2023-11-22T05:12:54;15;14;
36453;PMS5003;22478;51.740;-1.314;2023-11-22T05:15:22;17;16;
36453;PMS5003;22478;51.740;-1.314;2023-11-22T05:17:49;17;16;
36453;PMS5003;22478;51.740;-1.314;2023-11-22T05:20:16;17;15;
36453;PMS5003;22478;51.740;-1.314;2023-11-22T05:22:44;22;16;
36453;PMS5003;22478;51.740;-1.314;2023-11-22T05:25:11;20;19;
36453;PMS5003;22478;51.740;-1.314;2023-11-22T05:27:38;18;15;
36453;PMS5003;22478;51.740;-1.314;2023-11-22T05:30:06;19;17;
36453;PMS5003;22478;51.740;-1.314;2023-11-22T05:32:33;21;18;
36453;PMS5003;22478;51.740;-1.314;2023-11-22T05:35:01;19;16;
36453;PMS5003;22478;51.740;-1.314;2023-11-22T05:37:28;27;22;
36453;PMS5003;22478;51.740;-1.314;2023-11-22T05:39:55;21;17;
36453;PMS5003;22478;51.740;-1.314;2023-11-22T05:42:22;21;19;
36453;PMS5003;22478;51.740;-1.314;2023-11-22T05:44:49;23;18;
36453;PMS5003;22478;51.740;-1.314;2023-11-22T05:47:16;17;16;
36453;PMS5003;22478;51.740;-1.314;2023-11-22T05:49:43;35;28;
36453;PMS5003;22478;51.740;-1.314;2023-11-22T05:52:10;24;20;
36453;PMS5003;22478;51.740;-1.314;2023-11-22T05:54:37;22;20;
36453;PMS5003;22478;51.740;-1.314;2023-11-22T05:57:05;24;19;
36453;PMS5003;22478;51.740;-1.314;2023-11-22T05:59:32;21;19;
36453;PMS5003;22478;51.740;-1.314;2023-11-22T06:01:59;22;17;
36453;PMS5003;22478;51.740;-1.314;2023-11-22T06:04:26;17;17;
36453;PMS5003;22478;51.740;-1.314;2023-11-22T06:06:53;21;18;
36453;PMS5003;22478;51.740;-1.314;2023-11-22T06:09:20;19;16;
36453;PMS5003;22478;51.740;-1.314;2023-11-22T06:11:47;22;19;
36453;PMS5003;22478;51.740;-1.314;2023-11-22T06:14:14;22;17;
36453;PMS5003;22478;51.740;-1.314;2023-11-22T06:16:42;25;22;
36453;PMS5003;22478;51.740;-1.314;2023-11-22T06:19:08;21;19;
36453;PMS5003;22478;51.740;-1.314;2023-11-22T06:21:35;24;19;
36453;PMS5003;22478;51.740;-1.314;2023-11-22T06:24:03;23;17;
36453;PMS5003;22478;51.740;-1.314;2023-11-22T06:26:31;21;19;
36453;PMS5003;22478;51.740;-1.314;2023-11-22T06:28:58;19;18;
36453;PMS5003;22478;51.740;-1.314;2023-11-22T06:31:25;22;17;
36453;PMS5003;22478;51.740;-1.314;2023-11-22T06:33:52;23;23;
36453;PMS5003;22478;51.740;-1.314;2023-11-22T06:36:19;30;19;
36453;PMS5003;22478;51.740;-1.314;2023-11-22T06:38:47;27;22;
36453;PMS5003;22478;51.740;-1.314;2023-11-22T06:41:14;21;18;
36453;PMS5003;22478;51.740;-1.314;2023-11-22T06:43:41;22;16;
36453;PMS5003;22478;51.740;-1.314;2023-11-22T06:46:08;20;20;
36453;PMS5003;22478;51.740;-1.314;2023-11-22T06:48:35;20;19;
36453;PMS5003;22478;51.740;-1.314;2023-11-22T06:51:03;18;16;
36453;PMS5003;22478;51.740;-1.314;2023-11-22T06:53:31;23;21;
36453;PMS5003;22478;51.740;-1.314;2023-11-22T06:56:05;69;63;
36453;PMS5003;22478;51.740;-1.314;2023-11-22T06:58:32;31;25;
36453;PMS5003;22478;51.740;-1.314;2023-11-22T07:01:00;21;19;
36453;PMS5003;22478;51.740;-1.314;2023-11-22T07:03:27;21;18;
36453;PMS5003;22478;51.740;-1.314;2023-11-22T07:05:54;20;16;
36453;PMS5003;22478;51.740;-1.314;2023-11-22T07:08:22;22;20;
36453;PMS5003;22478;51.740;-1.314;2023-11-22T07:10:49;21;18;
36453;PMS5003;22478;51.740;-1.314;2023-11-22T07:13:16;17;15;
36453;PMS5003;22478;51.740;-1.314;2023-11-22T07:15:43;20;19;
36453;PMS5003;22478;51.740;-1.314;2023-11-22T07:18:10;23;17;
36453;PMS5003;22478;51.740;-1.314;2023-11-22T07:20:37;21;21;
36453;PMS5003;22478;51.740;-1.314;2023-11-22T07:23:04;22;18;
36453;PMS5003;22478;51.740;-1.314;2023-11-22T07:25:32;26;21;
36453;PMS5003;22478;51.740;-1.314;2023-11-22T07:27:59;27;18;
36453;PMS5003;22478;51.740;-1.314;2023-11-22T07:30:26;17;16;
36453;PMS5003;22478;51.740;-1.314;2023-11-22T07:32:53;19;16;
36453;PMS5003;22478;51.740;-1.314;2023-11-22T07:35:20;17;17;
36453;PMS5003;22478;51.740;-1.314;2023-11-22T07:37:47;21;17;
36453;PMS5003;22478;51.740;-1.314;2023-11-22T07:40:14;23;18;
36453;PMS5003;22478;51.740;-1.314;2023-11-22T07:42:41;20;17;
36453;PMS5003;22478;51.740;-1.314;2023-11-22T07:45:09;27;20;
36453;PMS5003;22478;51.740;-1.314;2023-11-22T07:47:36;21;18;
36453;PMS5003;22478;51.740;-1.314;2023-11-22T07:50:04;25;20;
36453;PMS5003;22478;51.740;-1.314;2023-11-22T07:52:32;22;17;
36453;PMS5003;22478;51.740;-1.314;2023-11-22T07:55:00;25;19;
36453;PMS5003;22478;51.740;-1.314;2023-11-22T07:57:27;26;19;
36453;PMS5003;22478;51.740;-1.314;2023-11-22T07:59:54;21;18;
36453;PMS5003;22478;51.740;-1.314;2023-11-22T08:02:21;27;20;
36453;PMS5003;22478;51.740;-1.314;2023-11-22T08:04:48;17;16;
36453;PMS5003;22478;51.740;-1.314;2023-11-22T08:07:15;21;17;
36453;PMS5003;22478;51.740;-1.314;2023-11-22T08:09:42;20;20;
36453;PMS5003;22478;51.740;-1.314;2023-11-22T08:12:09;23;19;
36453;PMS5003;22478;51.740;-1.314;2023-11-22T08:14:36;23;16;
36453;PMS5003;22478;51.740;-1.314;2023-11-22T08:17:03;23;19;
36453;PMS5003;22478;51.740;-1.314;2023-11-22T08:19:30;21;21;
36453;PMS5003;22478;51.740;-1.314;2023-11-22T08:21:58;23;16;
36453;PMS5003;22478;51.740;-1.314;2023-11-22T08:24:25;25;18;
36453;PMS5003;22478;51.740;-1.314;2023-11-22T08:26:52;23;19;
36453;PMS5003;22478;51.740;-1.314;2023-11-22T08:29:24;24;21;
36453;PMS5003;22478;51.740;-1.314;2023-11-22T08:31:52;20;17;
36453;PMS5003;22478;51.740;-1.314;2023-11-22T08:34:18;15;15;
36453;PMS5003;22478;51.740;-1.314;2023-11-22T08:36:45;21;18;
36453;PMS5003;22478;51.740;-1.314;2023-11-22T08:39:13;22;20;
36453;PMS5003;22478;51.740;-1.314;2023-11-22T08:41:40;21;18;
36453;PMS5003;22478;51.740;-1.314;2023-11-22T08:44:13;27;22;
36453;PMS5003;22478;51.740;-1.314;2023-11-22T08:46:40;22;18;
36453;PMS5003;22478;51.740;-1.314;2023-11-22T08:49:07;19;16;
36453;PMS5003;22478;51.740;-1.314;2023-11-22T08:51:34;19;16;
36453;PMS5003;22478;51.740;-1.314;2023-11-22T08:54:01;18;17;
36453;PMS5003;22478;51.740;-1.314;2023-11-22T08:56:28;21;17;
36453;PMS5003;22478;51.740;-1.314;2023-11-22T08:58:55;20;16;
36453;PMS5003;22478;51.740;-1.314;2023-11-22T09:01:22;21;20;
36453;PMS5003;22478;51.740;-1.314;2023-11-22T09:03:50;20;19;
36453;PMS5003;22478;51.740;-1.314;2023-11-22T09:06:17;23;20;
36453;PMS5003;22478;51.740;-1.314;2023-11-22T09:08:44;16;15;
36453;PMS5003;22478;51.740;-1.314;2023-11-22T09:11:11;18;17;
36453;PMS5003;22478;51.740;-1.314;2023-11-22T09:13:38;17;14;
36453;PMS5003;22478;51.740;-1.314;2023-11-22T09:16:05;17;15;
36453;PMS5003;22478;51.740;-1.314;2023-11-22T09:18:33;20;20;
36453;PMS5003;22478;51.740;-1.314;2023-11-22T09:21:01;22;19;
36453;PMS5003;22478;51.740;-1.314;2023-11-22T09:23:27;22;18;
36453;PMS5003;22478;51.740;-1.314;2023-11-22T09:25:55;27;20;
36453;PMS5003;22478;51.740;-1.314;2023-11-22T09:28:22;15;12;
36453;PMS5003;22478;51.740;-1.314;2023-11-22T09:30:49;18;14;
36453;PMS5003;22478;51.740;-1.314;2023-11-22T09:33:16;17;14;
36453;PMS5003;22478;51.740;-1.314;2023-11-22T09:35:44;17;15;
36453;PMS5003;22478;51.740;-1.314;2023-11-22T09:38:13;15;12;
36453;PMS5003;22478;51.740;-1.314;2023-11-22T09:40:41;16;14;
36453;PMS5003;22478;51.740;-1.314;2023-11-22T09:43:09;18;16;
36453;PMS5003;22478;51.740;-1.314;2023-11-22T09:45:37;16;13;
36453;PMS5003;22478;51.740;-1.314;2023-11-22T09:48:06;14;13;
36453;PMS5003;22478;51.740;-1.314;2023-11-22T09:50:43;16;14;
36453;PMS5003;22478;51.740;-1.314;2023-11-22T09:53:19;15;14;
36453;PMS5003;22478;51.740;-1.314;2023-11-22T09:55:52;15;14;
36453;PMS5003;22478;51.740;-1.314;2023-11-22T09:58:19;18;15;
36453;PMS5003;22478;51.740;-1.314;2023-11-22T10:00:47;16;13;
36453;PMS5003;22478;51.740;-1.314;2023-11-22T10:03:15;14;14;
36453;PMS5003;22478;51.740;-1.314;2023-11-22T10:05:43;17;14;
36453;PMS5003;22478;51.740;-1.314;2023-11-22T10:08:10;19;15;
36453;PMS5003;22478;51.740;-1.314;2023-11-22T10:10:37;15;14;
36453;PMS5003;22478;51.740;-1.314;2023-11-22T10:13:04;10;9;
36453;PMS5003;22478;51.740;-1.314;2023-11-22T10:15:32;18;17;
36453;PMS5003;22478;51.740;-1.314;2023-11-22T10:17:59;19;17;
36453;PMS5003;22478;51.740;-1.314;2023-11-22T10:20:35;14;10;
36453;PMS5003;22478;51.740;-1.314;2023-11-22T10:23:07;14;11;
36453;PMS5003;22478;51.740;-1.314;2023-11-22T10:25:36;16;14;
36453;PMS5003;22478;51.740;-1.314;2023-11-22T10:28:04;12;10;
36453;PMS5003;22478;51.740;-1.314;2023-11-22T10:30:33;15;12;
36453;PMS5003;22478;51.740;-1.314;2023-11-22T10:33:00;15;10;
36453;PMS5003;22478;51.740;-1.314;2023-11-22T10:35:29;13;13;
36453;PMS5003;22478;51.740;-1.314;2023-11-22T10:37:58;11;11;
36453;PMS5003;22478;51.740;-1.314;2023-11-22T10:40:26;12;10;
36453;PMS5003;22478;51.740;-1.314;2023-11-22T10:42:55;10;10;
36453;PMS5003;22478;51.740;-1.314;2023-11-22T10:45:24;7;7;
36453;PMS5003;22478;51.740;-1.314;2023-11-22T10:47:56;10;10;
36453;PMS5003;22478;51.740;-1.314;2023-11-22T10:50:23;10;10;
36453;PMS5003;22478;51.740;-1.314;2023-11-22T10:52:50;11;8;
36453;PMS5003;22478;51.740;-1.314;2023-11-22T10:55:19;14;12;
36453;PMS5003;22478;51.740;-1.314;2023-11-22T10:57:52;11;11;
36453;PMS5003;22478;51.740;-1.314;2023-11-22T11:00:26;11;9;
36453;PMS5003;22478;51.740;-1.314;2023-11-22T11:02:58;8;7;
36453;PMS5003;22478;51.740;-1.314;2023-11-22T11:05:30;8;8;
36453;PMS5003;22478;51.740;-1.314;2023-11-22T11:08:00;8;7;
36453;PMS5003;22478;51.740;-1.314;2023-11-22T11:10:31;9;9;
36453;PMS5003;22478;51.740;-1.314;2023-11-22T11:12:59;8;8;
36453;PMS5003;22478;51.740;-1.314;2023-11-22T11:15:27;9;8;
36453;PMS5003;22478;51.740;-1.314;2023-11-22T11:17:55;7;7;
36453;PMS5003;22478;51.740;-1.314;2023-11-22T11:20:23;9;9;
36453;PMS5003;22478;51.740;-1.314;2023-11-22T11:22:50;10;9;
36453;PMS5003;22478;51.740;-1.314;2023-11-22T11:25:19;7;7;
36453;PMS5003;22478;51.740;-1.314;2023-11-22T11:27:55;8;8;
36453;PMS5003;22478;51.740;-1.314;2023-11-22T11:30:40;8;7;
36453;PMS5003;22478;51.740;-1.314;2023-11-22T11:33:08;6;6;
36453;PMS5003;22478;51.740;-1.314;2023-11-22T11:35:37;9;7;
36453;PMS5003;22478;51.740;-1.314;2023-11-22T11:38:05;6;6;
36453;PMS5003;22478;51.740;-1.314;2023-11-22T11:40:33;12;9;
36453;PMS5003;22478;51.740;-1.314;2023-11-22T11:43:01;6;6;
36453;PMS5003;22478;51.740;-1.314;2023-11-22T11:45:28;6;6;
36453;PMS5003;22478;51.740;-1.314;2023-11-22T11:47:55;9;6;
36453;PMS5003;22478;51.740;-1.314;2023-11-22T11:50:22;8;8;
36453;PMS5003;22478;51.740;-1.314;2023-11-22T11:52:49;6;6;
36453;PMS5003;22478;51.740;-1.314;2023-11-22T11:55:16;7;6;
36453;PMS5003;22478;51.740;-1.314;2023-11-22T11:57:43;5;5;
36453;PMS5003;22478;51.740;-1.314;2023-11-22T12:00:12;8;6;
36453;PMS5003;22478;51.740;-1.314;2023-11-22T12:02:40;11;7;
36453;PMS5003;22478;51.740;-1.314;2023-11-22T12:05:07;6;6;
36453;PMS5003;22478;51.740;-1.314;2023-11-22T12:07:35;7;6;
36453;PMS5003;22478;51.740;-1.314;2023-11-22T12:10:02;14;11;
36453;PMS5003;22478;51.740;-1.314;2023-11-22T12:12:30;8;6;
36453;PMS5003;22478;51.740;-1.314;2023-11-22T12:14:57;10;8;
36453;PMS5003;22478;51.740;-1.314;2023-11-22T12:17:25;7;7;
36453;PMS5003;22478;51.740;-1.314;2023-11-22T12:19:52;15;10;
36453;PMS5003;22478;51.740;-1.314;2023-11-22T12:22:20;11;11;
36453;PMS5003;22478;51.740;-1.314;2023-11-22T12:24:48;9;7;
36453;PMS5003;22478;51.740;-1.314;2023-11-22T12:27:14;11;8;
36453;PMS5003;22478;51.740;-1.314;2023-11-22T12:29:41;9;9;
36453;PMS5003;22478;51.740;-1.314;2023-11-22T12:32:09;9;7;
36453;PMS5003;22478;51.740;-1.314;2023-11-22T12:34:36;10;8;
36453;PMS5003;22478;51.740;-1.314;2023-11-22T12:37:03;7;7;
36453;PMS5003;22478;51.740;-1.314;2023-11-22T12:39:30;10;10;
36453;PMS5003;22478;51.740;-1.314;2023-11-22T12:41:57;7;7;
36453;PMS5003;22478;51.740;-1.314;2023-11-22T12:44:24;12;10;
36453;PMS5003;22478;51.740;-1.314;2023-11-22T12:46:52;11;9;
36453;PMS5003;22478;51.740;-1.314;2023-11-22T12:49:19;13;11;
36453;PMS5003;22478;51.740;-1.314;2023-11-22T12:51:47;10;10;
36453;PMS5003;22478;51.740;-1.314;2023-11-22T12:54:15;13;10;
36453;PMS5003;22478;51.740;-1.314;2023-11-22T12:56:42;9;7;
36453;PMS5003;22478;51.740;-1.314;2023-11-22T12:59:10;10;10;
36453;PMS5003;22478;51.740;-1.314;2023-11-22T13:01:37;15;11;
36453;PMS5003;22478;51.740;-1.314;2023-11-22T13:04:04;12;8;
36453;PMS5003;22478;51.740;-1.314;2023-11-22T13:06:31;7;7;
36453;PMS5003;22478;51.740;-1.314;2023-11-22T13:08:59;6;6;
36453;PMS5003;22478;51.740;-1.314;2023-11-22T13:11:26;9;8;
36453;PMS5003;22478;51.740;-1.314;2023-11-22T13:13:53;7;7;
36453;PMS5003;22478;51.740;-1.314;2023-11-22T13:16:20;8;6;
36453;PMS5003;22478;51.740;-1.314;2023-11-22T13:18:47;7;7;
36453;PMS5003;22478;51.740;-1.314;2023-11-22T13:21:14;10;7;
36453;PMS5003;22478;51.740;-1.314;2023-11-22T13:23:41;6;6;
36453;PMS5003;22478;51.740;-1.314;2023-11-22T13:26:08;12;7;
36453;PMS5003;22478;51.740;-1.314;2023-11-22T13:28:35;8;6;
36453;PMS5003;22478;51.740;-1.314;2023-11-22T13:31:02;7;7;
36453;PMS5003;22478;51.740;-1.314;2023-11-22T13:33:29;7;7;
36453;PMS5003;22478;51.740;-1.314;2023-11-22T13:35:56;6;6;
36453;PMS5003;22478;51.740;-1.314;2023-11-22T13:38:23;7;6;
36453;PMS5003;22478;51.740;-1.314;2023-11-22T13:40:50;6;6;
36453;PMS5003;22478;51.740;-1.314;2023-11-22T13:43:17;10;9;
36453;PMS5003;22478;51.740;-1.314;2023-11-22T13:45:44;10;7;
36453;PMS5003;22478;51.740;-1.314;2023-11-22T13:48:12;8;8;
36453;PMS5003;22478;51.740;-1.314;2023-11-22T13:50:39;9;7;
36453;PMS5003;22478;51.740;-1.314;2023-11-22T13:53:06;10;8;
36453;PMS5003;22478;51.740;-1.314;2023-11-22T13:55:33;7;7;
36453;PMS5003;22478;51.740;-1.314;2023-11-22T13:58:00;10;10;
36453;PMS5003;22478;51.740;-1.314;2023-11-22T14:00:27;9;9;
36453;PMS5003;22478;51.740;-1.314;2023-11-22T14:02:56;10;8;
36453;PMS5003;22478;51.740;-1.314;2023-11-22T14:05:24;9;8;
36453;PMS5003;22478;51.740;-1.314;2023-11-22T14:07:51;10;8;
36453;PMS5003;22478;51.740;-1.314;2023-11-22T14:10:18;13;10;
36453;PMS5003;22478;51.740;-1.314;2023-11-22T14:12:46;11;8;
36453;PMS5003;22478;51.740;-1.314;2023-11-22T14:15:15;8;8;
36453;PMS5003;22478;51.740;-1.314;2023-11-22T14:17:42;11;8;
36453;PMS5003;22478;51.740;-1.314;2023-11-22T14:20:09;9;8;
36453;PMS5003;22478;51.740;-1.314;2023-11-22T14:22:38;9;8;
36453;PMS5003;22478;51.740;-1.314;2023-11-22T14:25:06;7;7;
36453;PMS5003;22478;51.740;-1.314;2023-11-22T14:27:34;6;6;
36453;PMS5003;22478;51.740;-1.314;2023-11-22T14:30:01;5;5;
36453;PMS5003;22478;51.740;-1.314;2023-11-22T14:32:29;5;5;
36453;PMS5003;22478;51.740;-1.314;2023-11-22T14:34:56;6;6;
36453;PMS5003;22478;51.740;-1.314;2023-11-22T14:37:23;7;7;
36453;PMS5003;22478;51.740;-1.314;2023-11-22T14:39:50;6;6;
36453;PMS5003;22478;51.740;-1.314;2023-11-22T14:42:17;9;7;
36453;PMS5003;22478;51.740;-1.314;2023-11-22T14:44:44;8;7;
36453;PMS5003;22478;51.740;-1.314;2023-11-22T14:47:11;8;7;
36453;PMS5003;22478;51.740;-1.314;2023-11-22T14:49:38;9;9;
36453;PMS5003;22478;51.740;-1.314;2023-11-22T14:52:05;8;7;
36453;PMS5003;22478;51.740;-1.314;2023-11-22T14:54:33;12;9;
36453;PMS5003;22478;51.740;-1.314;2023-11-22T14:57:00;13;11;
36453;PMS5003;22478;51.740;-1.314;2023-11-22T14:59:27;10;9;
36453;PMS5003;22478;51.740;-1.314;2023-11-22T15:01:54;11;9;
36453;PMS5003;22478;51.740;-1.314;2023-11-22T15:04:22;8;8;
36453;PMS5003;22478;51.740;-1.314;2023-11-22T15:06:49;9;9;
36453;PMS5003;22478;51.740;-1.314;2023-11-22T15:09:16;9;8;
36453;PMS5003;22478;51.740;-1.314;2023-11-22T15:11:43;9;8;
36453;PMS5003;22478;51.740;-1.314;2023-11-22T15:14:11;11;8;
36453;PMS5003;22478;51.740;-1.314;2023-11-22T15:16:38;9;7;
36453;PMS5003;22478;51.740;-1.314;2023-11-22T15:19:04;10;7;
36453;PMS5003;22478;51.740;-1.314;2023-11-22T15:21:31;8;7;
36453;PMS5003;22478;51.740;-1.314;2023-11-22T15:23:58;6;6;
36453;PMS5003;22478;51.740;-1.314;2023-11-22T15:26:26;11;8;
36453;PMS5003;22478;51.740;-1.314;2023-11-22T15:28:52;9;7;
36453;PMS5003;22478;51.740;-1.314;2023-11-22T15:31:20;8;7;
36453;PMS5003;22478;51.740;-1.314;2023-11-22T15:33:47;11;8;
36453;PMS5003;22478;51.740;-1.314;2023-11-22T15:36:14;9;8;
36453;PMS5003;22478;51.740;-1.314;2023-11-22T15:38:41;10;9;
36453;PMS5003;22478;51.740;-1.314;2023-11-22T15:41:08;10;10;
36453;PMS5003;22478;51.740;-1.314;2023-11-22T15:43:35;10;8;
36453;PMS5003;22478;51.740;-1.314;2023-11-22T15:46:02;8;7;
36453;PMS5003;22478;51.740;-1.314;2023-11-22T15:48:29;11;8;
36453;PMS5003;22478;51.740;-1.314;2023-11-22T15:50:56;8;6;
36453;PMS5003;22478;51.740;-1.314;2023-11-22T15:53:23;8;6;
36453;PMS5003;22478;51.740;-1.314;2023-11-22T15:55:50;10;8;
36453;PMS5003;22478;51.740;-1.314;2023-11-22T15:58:17;7;6;
36453;PMS5003;22478;51.740;-1.314;2023-11-22T16:00:44;7;7;
36453;PMS5003;22478;51.740;-1.314;2023-11-22T16:03:11;4;4;
36453;PMS5003;22478;51.740;-1.314;2023-11-22T16:05:38;4;4;
36453;PMS5003;22478;51.740;-1.314;2023-11-22T16:08:06;5;5;
36453;PMS5003;22478;51.740;-1.314;2023-11-22T16:10:33;7;7;
36453;PMS5003;22478;51.740;-1.314;2023-11-22T16:13:00;6;6;